Time;durP1;ratioP1;P1;durP2;ratioP2;P2;SDS_P1;SDS_P2;PMS_P1;PMS_P2;Temp;Humidity;BMP_temperature;BMP_pressure;BME280_temperature;BME280_humidity;BME280_pressure;Samples;Min_cycle;Max_cycle;Signal;HPM_P1;HPM_P2
2023/06/14 00:00:34;;;;;;;3.22;1.58;;;;;;;;;;4917691;28;20043;-80
2023/06/14 00:03:00;;;;;;;3.53;1.75;;;;;;;;;;4915463;28;20402;-83
2023/06/14 00:05:26;;;;;;;4.03;1.60;;;;;;;;;;4916089;28;20035;-81
2023/06/14 00:08:00;;;;;;;4.53;1.83;;;;;;;;;;4931221;28;20400;-81
2023/06/14 00:10:27;;;;;;;3.60;1.80;;;;;;;;;;4903213;28;20035;-81
2023/06/14 00:12:59;;;;;;;3.90;1.60;;;;;;;;;;4920618;28;20032;-81
2023/06/14 00:15:25;;;;;;;3.63;1.63;;;;;;;;;;4930870;28;20046;-81
2023/06/14 00:17:50;;;;;;;3.95;2.00;;;;;;;;;;4919560;28;20036;-81
2023/06/14 00:20:16;;;;;;;3.55;1.73;;;;;;;;;;4916187;28;20231;-81
2023/06/14 00:22:54;;;;;;;3.60;1.70;;;;;;;;;;4920182;28;20123;-82
2023/06/14 00:25:20;;;;;;;3.53;1.65;;;;;;;;;;4930093;28;20062;-82
2023/06/14 00:27:46;;;;;;;4.03;1.80;;;;;;;;;;4914606;28;20039;-81
2023/06/14 00:30:12;;;;;;;3.55;1.70;;;;;;;;;;4908837;28;20418;-82
2023/06/14 00:32:42;;;;;;;3.20;1.67;;;;;;;;;;4907091;28;20035;-82
2023/06/14 00:35:08;;;;;;;5.57;1.70;;;;;;;;;;4929698;28;20455;-82
2023/06/14 00:37:42;;;;;;;3.53;1.60;;;;;;;;;;4931402;28;20043;-81
2023/06/14 00:40:08;;;;;;;3.83;1.80;;;;;;;;;;4917894;28;20046;-81
2023/06/14 00:42:34;;;;;;;3.25;1.50;;;;;;;;;;4908550;28;20500;-81
2023/06/14 00:45:00;;;;;;;4.15;1.90;;;;;;;;;;4933475;28;20036;-80
2023/06/14 00:47:31;;;;;;;3.70;1.75;;;;;;;;;;4916315;29;20428;-81
2023/06/14 00:49:57;;;;;;;3.08;1.70;;;;;;;;;;4909016;29;20123;-80
2023/06/14 00:52:26;;;;;;;4.07;2.13;;;;;;;;;;4917255;29;20107;-80
2023/06/14 00:54:51;;;;;;;4.40;1.90;;;;;;;;;;4904245;28;20035;-81
2023/06/14 00:57:17;;;;;;;4.40;1.83;;;;;;;;;;4914783;29;20091;-81
2023/06/14 00:59:43;;;;;;;3.92;1.88;;;;;;;;;;4912383;28;20040;-82
2023/06/14 01:02:09;;;;;;;3.72;2.00;;;;;;;;;;4915755;28;20048;-82
2023/06/14 01:04:35;;;;;;;3.38;2.03;;;;;;;;;;4918159;28;20119;-81
2023/06/14 01:07:13;;;;;;;6.32;2.45;;;;;;;;;;4913276;28;20046;-81
2023/06/14 01:09:58;;;;;;;3.75;2.20;;;;;;;;;;4918690;28;20444;-83
2023/06/14 01:12:42;;;;;;;4.20;2.30;;;;;;;;;;4915695;28;20058;-80
2023/06/14 01:15:09;;;;;;;4.30;2.50;;;;;;;;;;4918115;28;20130;-80
2023/06/14 01:17:35;;;;;;;4.57;2.10;;;;;;;;;;4909212;28;20126;-81
2023/06/14 01:20:09;;;;;;;4.65;2.55;;;;;;;;;;4913199;28;20130;-81
2023/06/14 01:22:35;;;;;;;6.25;2.50;;;;;;;;;;4919376;28;20570;-81
2023/06/14 01:25:00;;;;;;;4.88;2.47;;;;;;;;;;4907606;28;20035;-81
2023/06/14 01:27:28;;;;;;;6.07;2.78;;;;;;;;;;4918136;29;20686;-81
2023/06/14 01:29:56;;;;;;;4.40;2.60;;;;;;;;;;4926413;28;20035;-81
2023/06/14 01:32:22;;;;;;;;;;;;;;;;;;4932186;28;20035;-80
2023/06/14 01:34:48;;;;;;;5.03;2.70;;;;;;;;;;4918117;29;20385;-81
2023/06/14 01:37:14;;;;;;;4.97;2.65;;;;;;;;;;4913704;28;20031;-79
2023/06/14 01:39:39;;;;;;;5.82;2.60;;;;;;;;;;4902708;29;20439;-83
2023/06/14 01:42:06;;;;;;;5.13;2.90;;;;;;;;;;4915343;28;20118;-79
2023/06/14 01:44:32;;;;;;;5.57;2.67;;;;;;;;;;4906732;28;20039;-81
2023/06/14 01:46:57;;;;;;;5.65;3.00;;;;;;;;;;4914807;29;20475;-81
2023/06/14 01:49:38;;;;;;;4.80;2.72;;;;;;;;;;4917343;29;20039;-81
2023/06/14 01:52:04;;;;;;;6.20;2.83;;;;;;;;;;4919567;28;20034;-82
2023/06/14 01:54:37;;;;;;;5.97;3.40;;;;;;;;;;4923110;28;20032;-81
2023/06/14 01:57:03;;;;;;;5.15;2.95;;;;;;;;;;4933050;28;20067;-81
2023/06/14 01:59:36;;;;;;;5.07;2.92;;;;;;;;;;4923704;28;20063;-81
2023/06/14 02:02:03;;;;;;;8.10;2.72;;;;;;;;;;4919513;28;20041;-80
2023/06/14 02:04:29;;;;;;;5.78;2.60;;;;;;;;;;4937385;28;20039;-81
2023/06/14 02:06:54;;;;;;;5.68;3.25;;;;;;;;;;4910405;29;20503;-82
2023/06/14 02:09:19;;;;;;;5.13;2.58;;;;;;;;;;4914689;28;20035;-81
2023/06/14 02:11:45;;;;;;;5.68;2.88;;;;;;;;;;4934180;28;20526;-81
2023/06/14 02:14:11;;;;;;;5.18;3.20;;;;;;;;;;4924415;28;20051;-81
2023/06/14 02:16:38;;;;;;;4.60;2.85;;;;;;;;;;4919636;28;20431;-81
2023/06/14 02:19:04;;;;;;;4.72;2.80;;;;;;;;;;4912319;29;20507;-81
2023/06/14 02:21:30;;;;;;;5.45;3.15;;;;;;;;;;4926429;28;20051;-82
2023/06/14 02:23:55;;;;;;;7.78;3.28;;;;;;;;;;4919049;28;20068;-81
2023/06/14 02:26:22;;;;;;;5.35;3.05;;;;;;;;;;4915702;28;20492;-81
2023/06/14 02:28:47;;;;;;;5.38;3.33;;;;;;;;;;4918942;28;20075;-80
2023/06/14 02:31:13;;;;;;;4.68;3.00;;;;;;;;;;4912897;28;20039;-82
2023/06/14 02:33:39;;;;;;;4.57;3.10;;;;;;;;;;4916943;28;20519;-81
2023/06/14 02:36:07;;;;;;;4.55;2.88;;;;;;;;;;4920929;28;20519;-81
2023/06/14 02:38:33;;;;;;;5.47;3.08;;;;;;;;;;4918633;28;20047;-81
2023/06/14 02:41:01;;;;;;;7.95;3.10;;;;;;;;;;4933039;28;20044;-81
2023/06/14 02:43:26;;;;;;;4.57;3.08;;;;;;;;;;4922754;28;20534;-82
2023/06/14 02:45:52;;;;;;;4.72;3.03;;;;;;;;;;4932574;28;20046;-81
2023/06/14 02:48:17;;;;;;;6.85;3.55;;;;;;;;;;4916921;28;20098;-81
2023/06/14 02:50:43;;;;;;;6.00;3.17;;;;;;;;;;4909523;28;20035;-81
2023/06/14 02:53:08;;;;;;;5.57;3.35;;;;;;;;;;4919415;29;20032;-81
2023/06/14 02:55:38;;;;;;;5.78;3.25;;;;;;;;;;4917272;28;20392;-81
2023/06/14 02:58:04;;;;;;;6.60;3.63;;;;;;;;;;4933464;28;20047;-82
2023/06/14 03:00:30;;;;;;;12.23;3.20;;;;;;;;;;4932790;28;20530;-82
2023/06/14 03:02:55;;;;;;;6.20;3.28;;;;;;;;;;4912264;28;20496;-82
2023/06/14 03:05:21;;;;;;;6.60;3.47;;;;;;;;;;4933445;28;20027;-83
2023/06/14 03:07:47;;;;;;;6.00;3.47;;;;;;;;;;4933264;28;20525;-82
2023/06/14 03:10:14;;;;;;;5.50;3.47;;;;;;;;;;4904365;28;20523;-82
2023/06/14 03:12:45;;;;;;;7.47;3.58;;;;;;;;;;4917866;28;20146;-81
2023/06/14 03:15:12;;;;;;;6.07;3.47;;;;;;;;;;4934016;28;21035;-82
2023/06/14 03:17:45;;;;;;;5.65;3.58;;;;;;;;;;4919747;28;20163;-82
2023/06/14 03:20:10;;;;;;;6.25;3.42;;;;;;;;;;4899851;28;20079;-82
2023/06/14 03:22:37;;;;;;;4.70;3.08;;;;;;;;;;4908130;29;20546;-84
2023/06/14 03:25:04;;;;;;;7.10;3.53;;;;;;;;;;4918067;28;20036;-82
2023/06/14 03:27:29;;;;;;;10.97;3.43;;;;;;;;;;4916524;28;20123;-82
2023/06/14 03:29:55;;;;;;;6.20;3.60;;;;;;;;;;4911009;29;20827;-82
2023/06/14 03:32:20;;;;;;;6.13;3.72;;;;;;;;;;4903375;28;20047;-81
2023/06/14 03:34:46;;;;;;;6.57;3.78;;;;;;;;;;4933846;28;20035;-82
2023/06/14 03:37:11;;;;;;;5.32;3.33;;;;;;;;;;4906285;29;20052;-86
2023/06/14 03:39:37;;;;;;;6.28;3.50;;;;;;;;;;4899052;28;20700;-85
2023/06/14 03:42:03;;;;;;;7.15;3.90;;;;;;;;;;4921756;28;20039;-85
2023/06/14 03:44:28;;;;;;;6.68;3.80;;;;;;;;;;4918346;29;20444;-86
2023/06/14 03:46:54;;;;;;;5.40;3.65;;;;;;;;;;4910052;29;20036;-85
2023/06/14 03:49:19;;;;;;;7.68;3.75;;;;;;;;;;4924780;28;20044;-86
2023/06/14 03:51:45;;;;;;;6.10;3.10;;;;;;;;;;4915996;28;20464;-85
2023/06/14 03:54:13;;;;;;;8.13;4.10;;;;;;;;;;4908069;29;20086;-86
2023/06/14 03:56:39;;;;;;;7.43;3.67;;;;;;;;;;4934815;28;20570;-86
2023/06/14 03:59:05;;;;;;;6.00;3.58;;;;;;;;;;4908695;28;20121;-86
2023/06/14 04:01:31;;;;;;;7.47;3.90;;;;;;;;;;4905878;28;20380;-86
2023/06/14 04:03:57;;;;;;;7.97;3.75;;;;;;;;;;4931183;28;20038;-86
2023/06/14 04:06:25;;;;;;;6.50;3.80;;;;;;;;;;4895381;28;20039;-86
2023/06/14 04:09:03;;;;;;;;;;;;;;;;;;4909957;28;20054;-85
2023/06/14 04:11:29;;;;;;;6.65;3.42;;;;;;;;;;4908349;28;19994;-85
2023/06/14 04:13:56;;;;;;;5.93;3.92;;;;;;;;;;4930897;28;20073;-84
2023/06/14 04:16:22;;;;;;;4.97;3.60;;;;;;;;;;4909338;29;20489;-85
2023/06/14 04:18:57;;;;;;;5.70;3.60;;;;;;;;;;4909285;28;20035;-85
2023/06/14 04:21:23;;;;;;;6.82;3.35;;;;;;;;;;4875760;29;20433;-85
2023/06/14 04:23:52;;;;;;;7.50;4.80;;;;;;;;;;4923147;28;20046;-84
2023/06/14 04:26:29;;;;;;;8.80;4.55;;;;;;;;;;4909780;28;20039;-81
2023/06/14 04:28:56;;;;;;;9.20;4.40;;;;;;;;;;4913848;28;20530;-84
2023/06/14 04:31:25;;;;;;;7.05;4.13;;;;;;;;;;4914648;28;20054;-85
2023/06/14 04:33:52;;;;;;;7.15;4.28;;;;;;;;;;4915450;28;21313;-85
2023/06/14 04:36:22;;;;;;;8.35;4.38;;;;;;;;;;4912948;28;20050;-85
2023/06/14 04:38:49;;;;;;;6.30;3.95;;;;;;;;;;4890209;29;20020;-85
2023/06/14 04:41:16;;;;;;;6.30;3.97;;;;;;;;;;4904676;28;20094;-87
2023/06/14 04:43:42;;;;;;;7.57;4.28;;;;;;;;;;4916354;28;20039;-84
2023/06/14 04:46:10;;;;;;;6.85;4.13;;;;;;;;;;4916770;29;20039;-81
2023/06/14 04:48:42;;;;;;;7.32;4.20;;;;;;;;;;4909583;28;20495;-82
2023/06/14 04:51:08;;;;;;;6.30;3.90;;;;;;;;;;4911184;28;20042;-80
2023/06/14 04:53:35;;;;;;;5.75;3.60;;;;;;;;;;4902773;28;20143;-79
2023/06/14 04:56:00;;;;;;;6.35;4.07;;;;;;;;;;4902707;28;20040;-80
2023/06/14 04:58:27;;;;;;;6.43;3.90;;;;;;;;;;4914242;29;20027;-80
2023/06/14 05:00:53;;;;;;;6.37;4.33;;;;;;;;;;4920248;28;20051;-80
2023/06/14 05:03:20;;;;;;;7.63;4.32;;;;;;;;;;4914092;29;20032;-80
2023/06/14 05:05:46;;;;;;;5.63;3.78;;;;;;;;;;4917964;28;20032;-80
2023/06/14 05:08:23;;;;;;;6.50;3.97;;;;;;;;;;4921231;28;20075;-81
2023/06/14 05:10:49;;;;;;;5.20;3.63;;;;;;;;;;4929982;28;20036;-80
2023/06/14 05:13:14;;;;;;;6.05;3.92;;;;;;;;;;4905524;28;20581;-79
2023/06/14 05:15:40;;;;;;;6.15;3.47;;;;;;;;;;4910462;28;20098;-80
2023/06/14 05:18:08;;;;;;;6.22;4.05;;;;;;;;;;4912286;28;20070;-80
2023/06/14 05:20:34;;;;;;;6.40;4.03;;;;;;;;;;4914150;28;20513;-80
2023/06/14 05:23:00;;;;;;;5.57;3.53;;;;;;;;;;4917038;28;20036;-80
2023/06/14 05:25:28;;;;;;;4.78;3.17;;;;;;;;;;4910384;28;20047;-80
2023/06/14 05:27:53;;;;;;;6.05;3.33;;;;;;;;;;4909241;29;20040;-81
2023/06/14 05:30:18;;;;;;;5.30;3.42;;;;;;;;;;4913743;28;20877;-81
2023/06/14 05:32:44;;;;;;;5.70;3.35;;;;;;;;;;4923658;28;20038;-81
2023/06/14 05:35:10;;;;;;;5.93;3.47;;;;;;;;;;4917424;28;20539;-83
2023/06/14 05:37:36;;;;;;;5.63;3.35;;;;;;;;;;4921302;28;20036;-81
2023/06/14 05:40:23;;;;;;;5.95;3.22;;;;;;;;;;4921212;28;20050;-81
2023/06/14 05:42:47;;;;;;;7.13;3.15;;;;;;;;;;4936104;28;20040;-82
2023/06/14 05:45:16;;;;;;;5.20;3.55;;;;;;;;;;4913037;28;20443;-81
2023/06/14 05:47:42;;;;;;;5.53;3.35;;;;;;;;;;4920336;28;20047;-80
2023/06/14 05:50:08;;;;;;;5.68;3.30;;;;;;;;;;4909751;28;20573;-82
2023/06/14 05:52:35;;;;;;;6.65;3.17;;;;;;;;;;4920875;28;20566;-82
2023/06/14 05:55:00;;;;;;;4.60;3.10;;;;;;;;;;4904622;28;20035;-82
2023/06/14 05:57:35;;;;;;;5.63;3.03;;;;;;;;;;4917943;29;20519;-80
2023/06/14 06:00:00;;;;;;;8.57;3.80;;;;;;;;;;4933670;28;20047;-82
2023/06/14 06:02:29;;;;;;;6.72;3.60;;;;;;;;;;4922944;28;20771;-80
2023/06/14 06:04:54;;;;;;;6.68;3.47;;;;;;;;;;4905000;29;20031;-82
2023/06/14 06:07:20;;;;;;;5.55;3.50;;;;;;;;;;4919102;28;20045;-82
2023/06/14 06:09:45;;;;;;;6.35;3.42;;;;;;;;;;4934379;28;20127;-80
2023/06/14 06:12:11;;;;;;;6.28;3.63;;;;;;;;;;4935352;28;20036;-82
2023/06/14 06:14:48;;;;;;;7.90;3.22;;;;;;;;;;4914900;28;20054;-82
2023/06/14 06:17:13;;;;;;;10.48;4.25;;;;;;;;;;4913215;28;20151;-81
2023/06/14 06:19:38;;;;;;;7.28;3.88;;;;;;;;;;4913119;28;20182;-83
2023/06/14 06:22:06;;;;;;;9.20;3.70;;;;;;;;;;4916265;28;20028;-82
2023/06/14 06:24:31;;;;;;;6.43;3.30;;;;;;;;;;4916854;28;20561;-81
2023/06/14 06:26:57;;;;;;;5.18;3.28;;;;;;;;;;4915956;28;20047;-82
2023/06/14 06:29:23;;;;;;;6.22;3.75;;;;;;;;;;4912585;28;20496;-81
2023/06/14 06:31:48;;;;;;;6.35;3.72;;;;;;;;;;4915658;28;20039;-82
2023/06/14 06:34:14;;;;;;;7.72;4.00;;;;;;;;;;4904079;28;20398;-83
2023/06/14 06:36:39;;;;;;;6.47;3.50;;;;;;;;;;4917754;28;20039;-82
2023/06/14 06:39:10;;;;;;;5.90;3.60;;;;;;;;;;4918152;28;20114;-82
2023/06/14 06:41:37;;;;;;;6.15;3.90;;;;;;;;;;4908898;28;20039;-82
2023/06/14 06:44:03;;;;;;;6.57;4.20;;;;;;;;;;4933508;28;20039;-82
2023/06/14 06:46:28;;;;;;;7.97;4.43;;;;;;;;;;4919329;29;20030;-82
2023/06/14 06:48:54;;;;;;;7.13;4.03;;;;;;;;;;4918148;29;20489;-82
2023/06/14 06:51:22;;;;;;;6.57;4.20;;;;;;;;;;4908176;28;20068;-82
2023/06/14 06:53:52;;;;;;;5.75;3.90;;;;;;;;;;4917339;28;20039;-82
2023/06/14 06:56:19;;;;;;;7.05;3.90;;;;;;;;;;4903936;28;20473;-82
2023/06/14 06:58:45;;;;;;;5.57;3.50;;;;;;;;;;4919455;28;20177;-82
2023/06/14 07:01:11;;;;;;;6.35;4.32;;;;;;;;;;4919495;28;20096;-82
2023/06/14 07:03:36;;;;;;;8.52;4.43;;;;;;;;;;4917358;28;20118;-82
2023/06/14 07:06:02;;;;;;;7.30;3.60;;;;;;;;;;4931704;28;20107;-82
2023/06/14 07:08:28;;;;;;;6.65;3.65;;;;;;;;;;4924422;29;20097;-82
2023/06/14 07:10:53;;;;;;;8.68;4.35;;;;;;;;;;4910520;28;20043;-81
2023/06/14 07:13:19;;;;;;;8.50;3.80;;;;;;;;;;4918995;28;20040;-82
2023/06/14 07:15:44;;;;;;;7.07;3.70;;;;;;;;;;4911908;28;20044;-81
2023/06/14 07:18:10;;;;;;;6.45;3.42;;;;;;;;;;4918133;28;20053;-82
2023/06/14 07:20:38;;;;;;;6.10;3.33;;;;;;;;;;4921682;28;20119;-82
2023/06/14 07:23:03;;;;;;;5.63;3.42;;;;;;;;;;4914162;28;20044;-81
2023/06/14 07:25:29;;;;;;;5.70;3.35;;;;;;;;;;4915252;28;20031;-82
2023/06/14 07:27:54;;;;;;;5.75;3.65;;;;;;;;;;4918923;29;20146;-81
2023/06/14 07:30:20;;;;;;;7.13;3.65;;;;;;;;;;4912499;28;20118;-82
2023/06/14 07:32:50;;;;;;;7.35;3.55;;;;;;;;;;4918701;28;20504;-81
2023/06/14 07:35:15;;;;;;;7.63;3.95;;;;;;;;;;4924351;28;20518;-81
2023/06/14 07:37:41;;;;;;;6.38;3.95;;;;;;;;;;4916145;28;20055;-81
2023/06/14 07:40:07;;;;;;;5.53;3.35;;;;;;;;;;4905895;28;20051;-82
2023/06/14 07:42:35;;;;;;;6.30;3.10;;;;;;;;;;4931876;28;20443;-81
2023/06/14 07:45:00;;;;;;;5.13;3.13;;;;;;;;;;4907856;28;20052;-83
2023/06/14 07:47:26;;;;;;;5.65;3.30;;;;;;;;;;4909324;29;20515;-82
2023/06/14 07:49:51;;;;;;;5.32;3.40;;;;;;;;;;4923974;28;20102;-83
2023/06/14 07:52:17;;;;;;;7.50;3.40;;;;;;;;;;4903713;28;20051;-82
2023/06/14 07:54:43;;;;;;;7.97;3.40;;;;;;;;;;4905883;28;20118;-82
2023/06/14 07:57:08;;;;;;;6.03;3.05;;;;;;;;;;4922582;28;20039;-81
2023/06/14 07:59:34;;;;;;;4.88;3.00;;;;;;;;;;4915701;28;20044;-82
2023/06/14 08:01:59;;;;;;;5.93;3.40;;;;;;;;;;4918770;29;20044;-83
2023/06/14 08:04:25;;;;;;;5.25;2.95;;;;;;;;;;4913073;29;20421;-82
2023/06/14 08:06:50;;;;;;;8.52;3.30;;;;;;;;;;4902678;28;20171;-83
2023/06/14 08:09:16;;;;;;;6.40;3.15;;;;;;;;;;4918280;28;20070;-82
2023/06/14 08:11:42;;;;;;;5.32;2.95;;;;;;;;;;4904424;29;20478;-81
2023/06/14 08:14:08;;;;;;;7.38;2.63;;;;;;;;;;4920574;28;20063;-81
2023/06/14 08:16:33;;;;;;;8.43;3.00;;;;;;;;;;4908104;28;20078;-82
2023/06/14 08:18:59;;;;;;;7.47;2.90;;;;;;;;;;4913919;29;20047;-81
2023/06/14 08:21:28;;;;;;;5.40;2.95;;;;;;;;;;4904377;29;20550;-81
2023/06/14 08:23:55;;;;;;;5.22;2.90;;;;;;;;;;4918795;28;20074;-81
2023/06/14 08:26:20;;;;;;;5.13;2.65;;;;;;;;;;4917058;28;20044;-83
2023/06/14 08:28:46;;;;;;;6.22;2.42;;;;;;;;;;4910041;28;20052;-83
2023/06/14 08:31:12;;;;;;;6.13;2.55;;;;;;;;;;4917482;28;20062;-81
2023/06/14 08:33:43;;;;;;;4.93;2.50;;;;;;;;;;4915287;28;20032;-81
2023/06/14 08:36:10;;;;;;;4.85;2.25;;;;;;;;;;4915075;29;20055;-82
2023/06/14 08:38:36;;;;;;;5.10;2.80;;;;;;;;;;4916340;28;20047;-81
2023/06/14 08:41:02;;;;;;;3.38;2.15;;;;;;;;;;4929657;28;20062;-83
2023/06/14 08:43:28;;;;;;;5.45;2.50;;;;;;;;;;4916351;29;20392;-82
2023/06/14 08:45:59;;;;;;;6.07;2.58;;;;;;;;;;4931206;28;20086;-82
2023/06/14 08:48:26;;;;;;;5.47;2.53;;;;;;;;;;4900832;29;20048;-83
2023/06/14 08:51:16;;;;;;;4.87;2.60;;;;;;;;;;4910446;29;20523;-82
2023/06/14 08:53:45;;;;;;;6.38;2.70;;;;;;;;;;4929815;28;20323;-82
2023/06/14 08:56:14;;;;;;;4.75;2.35;;;;;;;;;;4930362;28;20805;-81
2023/06/14 08:58:44;;;;;;;4.53;2.35;;;;;;;;;;4916291;28;20055;-83
2023/06/14 09:01:16;;;;;;;4.90;2.63;;;;;;;;;;4918525;28;20058;-83
2023/06/14 09:03:42;;;;;;;5.47;2.05;;;;;;;;;;4918889;28;20503;-84
2023/06/14 09:06:13;;;;;;;4.75;2.35;;;;;;;;;;4904561;29;20082;-81
2023/06/14 09:08:47;;;;;;;3.45;1.73;;;;;;;;;;4916381;28;20043;-82
2023/06/14 09:11:14;;;;;;;4.63;2.20;;;;;;;;;;4890116;29;20209;-82
2023/06/14 09:13:40;;;;;;;5.85;2.42;;;;;;;;;;4919431;28;20048;-82
2023/06/14 09:16:06;;;;;;;6.82;2.65;;;;;;;;;;4926833;28;20455;-85
2023/06/14 09:18:40;;;;;;;5.60;1.98;;;;;;;;;;4915160;28;20040;-84
2023/06/14 09:21:07;;;;;;;5.82;1.88;;;;;;;;;;4930421;28;20505;-81
2023/06/14 09:23:45;;;;;;;3.47;2.00;;;;;;;;;;4896573;28;20027;-83
2023/06/14 09:26:23;;;;;;;4.15;2.10;;;;;;;;;;4906936;28;20822;-82
2023/06/14 09:28:52;;;;;;;3.25;2.03;;;;;;;;;;4900646;28;20031;-82
2023/06/14 09:31:32;;;;;;;6.95;2.45;;;;;;;;;;4904180;28;20039;-82
2023/06/14 09:34:05;;;;;;;4.68;2.20;;;;;;;;;;4899201;29;20499;-81
2023/06/14 09:36:37;;;;;;;5.05;2.10;;;;;;;;;;4885031;28;20042;-81
2023/06/14 09:39:09;;;;;;;4.57;2.10;;;;;;;;;;4888687;28;20047;-81
2023/06/14 09:41:53;;;;;;;7.05;2.20;;;;;;;;;;4889963;28;20034;-81
2023/06/14 09:44:20;;;;;;;3.50;1.88;;;;;;;;;;4918046;28;20455;-81
2023/06/14 09:47:11;;;;;;;6.27;2.10;;;;;;;;;;4898289;28;20062;-82
2023/06/14 09:49:36;;;;;;;3.80;2.40;;;;;;;;;;4895269;28;20047;-82
2023/06/14 09:52:26;;;;;;;5.22;2.38;;;;;;;;;;4902356;28;20036;-81
2023/06/14 09:54:53;;;;;;;5.20;2.28;;;;;;;;;;4901394;28;20047;-80
2023/06/14 09:58:01;;;;;;;3.38;2.00;;;;;;;;;;4908102;28;20094;-81
2023/06/14 10:01:03;;;;;;;6.13;2.10;;;;;;;;;;4918134;28;20078;-83
2023/06/14 10:03:37;;;;;;;4.90;2.20;;;;;;;;;;4871945;28;20040;-83
2023/06/14 10:06:24;;;;;;;5.97;2.33;;;;;;;;;;4875332;28;20031;-83
2023/06/14 10:08:52;;;;;;;5.43;2.70;;;;;;;;;;4890100;28;21266;-83
2023/06/14 10:11:21;;;;;;;5.05;1.92;;;;;;;;;;4896054;28;20047;-83
2023/06/14 10:13:50;;;;;;;4.93;2.25;;;;;;;;;;4910662;28;20059;-81
2023/06/14 10:16:33;;;;;;;6.07;2.40;;;;;;;;;;4881964;28;20046;-82
2023/06/14 10:19:22;;;;;;;6.53;2.72;;;;;;;;;;4940755;28;20035;-82
2023/06/14 10:22:00;;;;;;;4.03;2.25;;;;;;;;;;4885823;28;21039;-82
2023/06/14 10:24:42;;;;;;;22.40;4.22;;;;;;;;;;4935479;28;20042;-81
2023/06/14 10:27:10;;;;;;;4.88;2.60;;;;;;;;;;4915526;28;20747;-82
2023/06/14 10:30:45;;;;;;;6.32;2.22;;;;;;;;;;4900081;28;20027;-83
2023/06/14 10:33:09;;;;;;;5.28;2.15;;;;;;;;;;4903288;28;20039;-82
2023/06/14 10:35:35;;;;;;;5.05;2.25;;;;;;;;;;4889231;28;20495;-81
2023/06/14 10:38:08;;;;;;;6.22;2.60;;;;;;;;;;4913959;28;20039;-81
2023/06/14 10:40:37;;;;;;;12.35;2.83;;;;;;;;;;4913132;28;20055;-82
2023/06/14 10:43:22;;;;;;;4.13;2.30;;;;;;;;;;4920951;28;20035;-82
2023/06/14 10:46:16;;;;;;;3.90;2.15;;;;;;;;;;4905568;28;20110;-82
2023/06/14 10:48:43;;;;;;;4.05;2.25;;;;;;;;;;4922944;28;20122;-82
2023/06/14 10:51:20;;;;;;;5.30;2.20;;;;;;;;;;4918878;28;20905;-82
2023/06/14 10:53:49;;;;;;;4.47;1.85;;;;;;;;;;4921581;28;20122;-83
2023/06/14 10:56:28;;;;;;;5.28;2.42;;;;;;;;;;4911764;29;20123;-81
2023/06/14 10:58:56;;;;;;;5.20;2.15;;;;;;;;;;4936150;28;20062;-83
2023/06/14 11:01:23;;;;;;;;;;;;;;;;;;4919055;28;20043;-83
2023/06/14 11:03:52;;;;;;;;;;;;;;;;;;4905959;28;19965;-82
2023/06/14 11:06:23;;;;;;;5.25;2.17;;;;;;;;;;4916919;28;19965;-83
2023/06/14 11:08:57;;;;;;;5.20;2.22;;;;;;;;;;4904246;28;20035;-82
2023/06/14 11:11:25;;;;;;;5.20;2.42;;;;;;;;;;4918372;28;20456;-81
2023/06/14 11:13:51;;;;;;;6.30;2.25;;;;;;;;;;4920914;28;21029;-82
2023/06/14 11:16:18;;;;;;;5.45;2.20;;;;;;;;;;4933158;28;20082;-81
2023/06/14 11:18:50;;;;;;;;;;;;;;;;;;4918379;28;20035;-82
2023/06/14 11:21:17;;;;;;;30.15;4.15;;;;;;;;;;4901891;28;19922;-81
2023/06/14 11:23:52;;;;;;;5.38;2.05;;;;;;;;;;4918435;28;20042;-82
2023/06/14 11:26:27;;;;;;;5.45;2.15;;;;;;;;;;4917846;28;20848;-81
2023/06/14 11:29:00;;;;;;;4.45;2.17;;;;;;;;;;4919597;28;20039;-81
2023/06/14 11:31:26;;;;;;;4.60;2.08;;;;;;;;;;4911234;28;20034;-82
2023/06/14 11:33:56;;;;;;;4.45;2.08;;;;;;;;;;4909198;28;20035;-82
2023/06/14 11:36:27;;;;;;;3.58;1.92;;;;;;;;;;4893889;28;20118;-81
2023/06/14 11:38:58;;;;;;;4.18;2.00;;;;;;;;;;4919109;28;20047;-82
2023/06/14 11:41:25;;;;;;;4.72;1.92;;;;;;;;;;4933501;28;20047;-82
2023/06/14 11:43:53;;;;;;;4.07;1.83;;;;;;;;;;4920059;28;20036;-82
2023/06/14 11:46:23;;;;;;;5.40;2.10;;;;;;;;;;4917655;28;20036;-82
2023/06/14 11:48:49;;;;;;;6.80;2.35;;;;;;;;;;4931395;28;20506;-81
2023/06/14 11:51:15;;;;;;;4.07;1.80;;;;;;;;;;4916888;28;20039;-80
2023/06/14 11:53:42;;;;;;;4.35;1.95;;;;;;;;;;4932359;28;20365;-81
2023/06/14 11:56:07;;;;;;;5.63;2.15;;;;;;;;;;4910053;28;20039;-84
2023/06/14 11:58:40;;;;;;;5.13;2.35;;;;;;;;;;4903961;28;20039;-82
2023/06/14 12:01:05;;;;;;;4.82;2.03;;;;;;;;;;4913701;28;20495;-82
2023/06/14 12:03:31;;;;;;;5.22;2.40;;;;;;;;;;4916709;28;20098;-83
2023/06/14 12:06:09;;;;;;;4.32;2.00;;;;;;;;;;4903878;29;20062;-82
2023/06/14 12:08:41;;;;;;;4.13;2.08;;;;;;;;;;4897072;28;20123;-82
2023/06/14 12:11:16;;;;;;;4.57;2.00;;;;;;;;;;4928284;28;20527;-82
2023/06/14 12:13:42;;;;;;;4.07;2.10;;;;;;;;;;4931560;28;20032;-82
2023/06/14 12:16:11;;;;;;;4.15;2.17;;;;;;;;;;4907305;28;20070;-83
2023/06/14 12:18:39;;;;;;;4.50;2.10;;;;;;;;;;4931169;28;20403;-83
2023/06/14 12:21:06;;;;;;;7.35;2.10;;;;;;;;;;4931993;28;20408;-82
2023/06/14 12:23:45;;;;;;;5.15;2.30;;;;;;;;;;4920267;28;20059;-82
2023/06/14 12:26:13;;;;;;;4.63;2.05;;;;;;;;;;4935716;28;20091;-83
2023/06/14 12:28:40;;;;;;;3.03;1.67;;;;;;;;;;4919684;28;20114;-81
2023/06/14 12:31:07;;;;;;;4.63;1.80;;;;;;;;;;4931150;28;20509;-82
2023/06/14 12:33:32;;;;;;;6.85;2.20;;;;;;;;;;4932079;28;20039;-82
2023/06/14 12:35:58;;;;;;;4.47;2.00;;;;;;;;;;4917276;28;20041;-82
2023/06/14 12:38:24;;;;;;;4.53;2.33;;;;;;;;;;4920118;28;20038;-83
2023/06/14 12:40:52;;;;;;;4.78;2.20;;;;;;;;;;4914030;28;20043;-82
2023/06/14 12:43:18;;;;;;;6.18;2.15;;;;;;;;;;4919175;28;20044;-81
2023/06/14 12:45:43;;;;;;;5.15;2.00;;;;;;;;;;4922188;28;20372;-82
2023/06/14 12:48:09;;;;;;;6.38;2.30;;;;;;;;;;4911368;28;20075;-83
2023/06/14 12:50:34;;;;;;;7.15;2.05;;;;;;;;;;4918643;28;20047;-81
2023/06/14 12:53:00;;;;;;;5.63;2.10;;;;;;;;;;4903742;29;20087;-82
2023/06/14 12:55:25;;;;;;;7.85;2.20;;;;;;;;;;4906630;29;20047;-82
2023/06/14 12:57:51;;;;;;;6.57;2.30;;;;;;;;;;4919374;28;20046;-82
2023/06/14 13:00:17;;;;;;;4.38;2.13;;;;;;;;;;4900096;29;20052;-82
2023/06/14 13:02:43;;;;;;;6.75;2.22;;;;;;;;;;4900263;28;20060;-81
2023/06/14 13:05:09;;;;;;;4.55;2.03;;;;;;;;;;4926992;28;20066;-83
2023/06/14 13:07:35;;;;;;;7.07;2.35;;;;;;;;;;4919860;28;20548;-83
2023/06/14 13:10:01;;;;;;;4.68;2.40;;;;;;;;;;4932674;29;20472;-82
2023/06/14 13:12:26;;;;;;;3.40;1.90;;;;;;;;;;4912468;29;20040;-82
2023/06/14 13:14:51;;;;;;;5.93;2.15;;;;;;;;;;4932331;28;20095;-83
2023/06/14 13:17:17;;;;;;;6.80;2.13;;;;;;;;;;4915387;28;20505;-82
2023/06/14 13:19:42;;;;;;;7.78;2.35;;;;;;;;;;4907716;28;20579;-82
2023/06/14 13:22:08;;;;;;;7.47;2.10;;;;;;;;;;4925428;28;20039;-82
2023/06/14 13:24:34;;;;;;;8.30;4.28;;;;;;;;;;4915082;28;20042;-84
2023/06/14 13:27:00;;;;;;;5.95;2.20;;;;;;;;;;4921847;29;20181;-82
2023/06/14 13:29:26;;;;;;;5.63;2.05;;;;;;;;;;4912143;28;20042;-80
2023/06/14 13:31:52;;;;;;;4.45;2.17;;;;;;;;;;4913536;28;20050;-83
2023/06/14 13:34:18;;;;;;;3.47;1.98;;;;;;;;;;4912422;28;20047;-81
2023/06/14 13:36:44;;;;;;;5.38;2.00;;;;;;;;;;4902739;28;20043;-83
2023/06/14 13:39:10;;;;;;;4.68;2.00;;;;;;;;;;4916646;28;20143;-83
2023/06/14 13:41:36;;;;;;;5.40;1.90;;;;;;;;;;4906151;28;20047;-83
2023/06/14 13:44:03;;;;;;;5.78;2.00;;;;;;;;;;4917323;28;20035;-83
2023/06/14 13:46:29;;;;;;;4.47;2.00;;;;;;;;;;4920156;29;20419;-82
2023/06/14 13:48:55;;;;;;;4.28;1.90;;;;;;;;;;4937906;28;20455;-82
2023/06/14 13:51:33;;;;;;;4.32;1.70;;;;;;;;;;4914717;28;20126;-82
2023/06/14 13:53:58;;;;;;;4.03;1.70;;;;;;;;;;4908042;29;20040;-84
2023/06/14 13:56:24;;;;;;;3.97;1.65;;;;;;;;;;4899190;29;20400;-83
2023/06/14 13:58:50;;;;;;;3.78;1.70;;;;;;;;;;4917584;28;20090;-83
2023/06/14 14:01:18;;;;;;;5.45;1.92;;;;;;;;;;4921726;28;20098;-82
2023/06/14 14:03:45;;;;;;;4.20;1.88;;;;;;;;;;4894696;29;20530;-81
2023/06/14 14:06:10;;;;;;;;;;;;;;;;;;4925674;28;20547;-84
2023/06/14 14:08:45;;;;;;;4.75;2.00;;;;;;;;;;4918957;28;20002;-85
2023/06/14 14:11:10;;;;;;;3.83;1.80;;;;;;;;;;4917557;28;20456;-84
2023/06/14 14:13:44;;;;;;;4.57;2.00;;;;;;;;;;4918970;28;20036;-86
2023/06/14 14:16:10;;;;;;;4.18;1.90;;;;;;;;;;4920337;28;20092;-85
2023/06/14 14:18:36;;;;;;;4.95;1.90;;;;;;;;;;4922222;28;20039;-86
2023/06/14 14:21:02;;;;;;;4.38;1.90;;;;;;;;;;4931839;28;20055;-87
2023/06/14 14:23:28;;;;;;;4.32;1.80;;;;;;;;;;4916515;29;20506;-86
2023/06/14 14:25:56;;;;;;;4.10;1.73;;;;;;;;;;4934596;28;20058;-86
2023/06/14 14:28:22;;;;;;;5.10;2.30;;;;;;;;;;4916341;28;20529;-84
2023/06/14 14:30:48;;;;;;;4.75;1.90;;;;;;;;;;4913674;28;20035;-85
2023/06/14 14:33:15;;;;;;;4.10;2.00;;;;;;;;;;4898146;28;20436;-86
2023/06/14 14:35:45;;;;;;;5.65;2.00;;;;;;;;;;4927077;28;20039;-86
2023/06/14 14:38:18;;;;;;;5.13;2.00;;;;;;;;;;4921447;28;20147;-83
2023/06/14 14:40:44;;;;;;;5.18;2.10;;;;;;;;;;4933796;28;20460;-84
2023/06/14 14:43:15;;;;;;;5.30;2.25;;;;;;;;;;4918479;28;20043;-84
2023/06/14 14:45:40;;;;;;;5.13;2.00;;;;;;;;;;4916968;28;20036;-83
2023/06/14 14:48:06;;;;;;;4.47;2.00;;;;;;;;;;4910092;28;20551;-84
2023/06/14 14:50:32;;;;;;;5.38;2.20;;;;;;;;;;4908116;28;20043;-86
2023/06/14 14:53:00;;;;;;;4.13;2.10;;;;;;;;;;4916633;29;20039;-83